createdAt,value
2018-12-08T00:16:48.000Z,23.07
2018-12-08T00:26:48.000Z,23.14
2018-12-08T00:36:48.000Z,23.07
2018-12-08T00:46:48.000Z,23.01
2018-12-08T00:56:48.000Z,22.95
2018-12-08T01:06:48.000Z,22.85
2018-12-08T01:16:48.000Z,22.68
2018-12-08T01:26:49.000Z,22.56
2018-12-08T01:36:49.000Z,22.54
2018-12-08T01:46:49.000Z,22.42
2018-12-08T01:56:49.000Z,22.41
2018-12-08T02:06:49.000Z,22.4
2018-12-08T02:16:49.000Z,22.33
2018-12-08T02:26:49.000Z,22.32
2018-12-08T02:36:49.000Z,22.26
2018-12-08T02:46:49.000Z,22.24
2018-12-08T02:56:49.000Z,22.25
2018-12-08T03:06:49.000Z,22.2
2018-12-08T03:16:49.000Z,22.17
2018-12-08T03:26:49.000Z,22.15
2018-12-08T03:36:49.000Z,22.15
2018-12-08T03:46:49.000Z,22.14
2018-12-08T03:56:49.000Z,22.08
2018-12-08T04:06:49.000Z,22.11
2018-12-08T04:16:49.000Z,22.04
2018-12-08T04:26:49.000Z,22.01
2018-12-08T04:36:49.000Z,22.01
2018-12-08T04:46:49.000Z,21.97
2018-12-08T04:56:49.000Z,21.98
2018-12-08T05:06:49.000Z,21.97
2018-12-08T05:16:49.000Z,22
2018-12-08T05:26:49.000Z,22.01
2018-12-08T05:36:49.000Z,22.01
2018-12-08T05:46:49.000Z,22.04
2018-12-08T05:56:49.000Z,22.1
2018-12-08T06:06:49.000Z,22.16
2018-12-08T06:16:49.000Z,22.19
2018-12-08T06:26:49.000Z,22.25
2018-12-08T06:36:49.000Z,22.31
2018-12-08T06:46:49.000Z,22.36
2018-12-08T06:56:49.000Z,22.48
2018-12-08T07:06:49.000Z,22.56
2018-12-08T07:16:49.000Z,22.67
2018-12-08T07:26:49.000Z,22.69
2018-12-08T07:36:49.000Z,22.72
2018-12-08T07:46:49.000Z,22.74
2018-12-08T07:56:49.000Z,22.76
2018-12-08T08:06:49.000Z,22.83
2018-12-08T08:16:50.000Z,22.86
2018-12-08T08:26:49.000Z,22.88
2018-12-08T08:36:49.000Z,22.97
2018-12-08T08:46:49.000Z,22.98
2018-12-08T08:56:51.000Z,23.04
2018-12-08T09:06:49.000Z,23.02
2018-12-08T09:16:49.000Z,23.07
2018-12-08T09:26:49.000Z,23.1
2018-12-08T09:36:50.000Z,23.14
2018-12-08T09:46:50.000Z,23.18
2018-12-08T09:56:50.000Z,23.21
2018-12-08T10:06:50.000Z,23.24
2018-12-08T10:16:50.000Z,23.3
2018-12-08T10:26:50.000Z,23.31
2018-12-08T10:36:50.000Z,23.37
2018-12-08T10:46:50.000Z,23.39
2018-12-08T10:56:51.000Z,23.42
2018-12-08T11:06:50.000Z,23.48
2018-12-08T11:16:50.000Z,23.55
2018-12-08T11:26:50.000Z,23.68
2018-12-08T11:36:50.000Z,23.75
2018-12-08T11:46:50.000Z,23.81
2018-12-08T11:56:50.000Z,23.8
2018-12-08T12:06:50.000Z,23.82
2018-12-08T12:16:50.000Z,23.9
2018-12-08T12:26:50.000Z,23.99
2018-12-08T12:36:50.000Z,23.98
2018-12-08T12:46:50.000Z,24.05
2018-12-08T12:56:50.000Z,24.18
2018-12-08T13:06:50.000Z,24.05
2018-12-08T13:16:50.000Z,24.06
2018-12-08T13:26:50.000Z,24.04
2018-12-08T13:36:50.000Z,24.04
2018-12-08T13:46:50.000Z,24.04
2018-12-08T13:56:50.000Z,24.06
2018-12-08T14:06:50.000Z,24.09
2018-12-08T14:16:50.000Z,24.06
2018-12-08T14:26:50.000Z,24.12
2018-12-08T14:36:50.000Z,24.17
2018-12-08T14:46:50.000Z,24.19
2018-12-08T14:56:50.000Z,24.26
2018-12-08T15:06:50.000Z,24.26
2018-12-08T15:16:50.000Z,24.28
2018-12-08T15:26:50.000Z,24.32
2018-12-08T15:36:50.000Z,24.32
2018-12-08T15:46:50.000Z,24.33
2018-12-08T15:56:50.000Z,24.29
2018-12-08T16:06:50.000Z,24.33
2018-12-08T16:16:50.000Z,24.33
2018-12-08T16:26:50.000Z,24.36
2018-12-08T16:36:50.000Z,24.36
2018-12-08T16:46:50.000Z,24.42
2018-12-08T16:56:50.000Z,24.41
2018-12-08T17:06:50.000Z,24.35
2018-12-08T17:16:50.000Z,24.38
2018-12-08T17:26:50.000Z,24.43
2018-12-08T17:36:51.000Z,24.38
2018-12-08T17:46:50.000Z,24.57
2018-12-08T17:56:51.000Z,24.77
2018-12-08T18:06:51.000Z,24.81
2018-12-08T18:16:51.000Z,24.78
2018-12-08T18:26:51.000Z,24.76
2018-12-08T18:36:51.000Z,24.73
2018-12-08T18:46:51.000Z,24.78
2018-12-08T18:56:51.000Z,24.84
2018-12-08T19:06:51.000Z,24.82
2018-12-08T19:16:51.000Z,24.84
2018-12-08T19:26:51.000Z,24.86
2018-12-08T19:36:51.000Z,24.9
2018-12-08T19:46:53.000Z,24.86
2018-12-08T19:56:52.000Z,24.86
2018-12-08T20:06:53.000Z,24.98
2018-12-08T20:16:51.000Z,24.87
2018-12-08T20:26:51.000Z,24.92
2018-12-08T20:36:52.000Z,24.89
2018-12-08T20:46:51.000Z,24.99
2018-12-08T20:56:51.000Z,24.99
2018-12-08T21:06:51.000Z,24.97
2018-12-08T21:16:51.000Z,25.01
2018-12-08T21:26:51.000Z,25.05
2018-12-08T21:36:51.000Z,24.94
2018-12-08T21:46:51.000Z,24.97
2018-12-08T21:56:55.000Z,25
2018-12-08T22:06:51.000Z,25.08
2018-12-08T22:16:51.000Z,25.01
2018-12-08T22:26:51.000Z,24.94
2018-12-08T22:36:51.000Z,25.13
2018-12-08T22:46:51.000Z,24.87
2018-12-08T22:56:51.000Z,24.83
2018-12-08T23:06:51.000Z,24.74
2018-12-08T23:16:51.000Z,24.73
2018-12-08T23:26:51.000Z,24.63
2018-12-08T23:36:51.000Z,24.49
2018-12-08T23:46:51.000Z,24.48
2018-12-08T23:56:51.000Z,24.43
